createdAt,value
2023-05-07T00:02:00.618Z,13.85
2023-05-07T00:04:27.540Z,13.40
2023-05-07T00:06:54.057Z,15.95
2023-05-07T00:09:20.831Z,15.02
2023-05-07T00:11:47.362Z,13.85
2023-05-07T00:14:13.923Z,13.63
2023-05-07T00:16:40.575Z,15.23
2023-05-07T00:19:07.197Z,15.63
2023-05-07T00:21:33.905Z,15.15
2023-05-07T00:24:00.478Z,15.85
2023-05-07T00:26:26.986Z,15.93
2023-05-07T00:28:53.884Z,16.48
2023-05-07T00:31:20.508Z,15.10
2023-05-07T00:33:47.660Z,17.17
2023-05-07T00:36:14.293Z,16.17
2023-05-07T00:38:41.558Z,12.65
2023-05-07T00:41:08.365Z,13.18
2023-05-07T00:43:35.228Z,13.25
2023-05-07T00:46:02.207Z,18.25
2023-05-07T00:48:28.831Z,15.30
2023-05-07T00:50:55.479Z,15.35
2023-05-07T00:53:22.411Z,14.98
2023-05-07T00:55:49.135Z,17.02
2023-05-07T00:58:16.026Z,14.77
2023-05-07T01:00:42.655Z,17.67
2023-05-07T01:03:09.588Z,12.60
2023-05-07T01:05:36.727Z,15.65
2023-05-07T01:08:04.721Z,15.05
2023-05-07T01:10:31.667Z,16.75
2023-05-07T01:12:59.815Z,14.32
2023-05-07T01:15:26.674Z,17.63
2023-05-07T01:17:53.811Z,16.98
2023-05-07T01:20:28.799Z,15.82
2023-05-07T01:22:57.255Z,14.93
2023-05-07T01:25:24.263Z,13.40
2023-05-07T01:27:53.737Z,13.77
2023-05-07T01:30:24.044Z,11.98
2023-05-07T01:33:00.520Z,14.75
2023-05-07T01:35:29.937Z,12.75
2023-05-07T01:37:57.071Z,15.38
2023-05-07T01:40:24.034Z,14.02
2023-05-07T01:42:53.961Z,14.95
2023-05-07T01:45:20.868Z,14.15
2023-05-07T01:47:47.592Z,16.25
2023-05-07T01:50:16.334Z,13.80
2023-05-07T01:52:42.797Z,16.25
2023-05-07T01:55:09.518Z,16.15
2023-05-07T01:57:36.434Z,16.85
2023-05-07T02:00:06.098Z,17.58
2023-05-07T02:02:42.116Z,13.98
2023-05-07T02:05:17.395Z,15.90
2023-05-07T02:07:47.492Z,17.63
2023-05-07T02:10:15.116Z,18.08
2023-05-07T02:12:41.877Z,15.45
2023-05-07T02:15:08.687Z,20.88
2023-05-07T02:17:36.620Z,15.73
2023-05-07T02:20:04.850Z,19.20
2023-05-07T02:22:31.624Z,18.70
2023-05-07T02:24:58.244Z,14.45
2023-05-07T02:27:24.832Z,15.32
2023-05-07T02:29:51.601Z,16.77
2023-05-07T02:32:18.390Z,13.93
2023-05-07T02:34:45.103Z,14.20
2023-05-07T02:37:11.704Z,16.45
2023-05-07T02:39:39.367Z,16.45
2023-05-07T02:42:05.996Z,14.13
2023-05-07T02:44:32.844Z,13.40
2023-05-07T02:46:59.426Z,13.18
2023-05-07T02:49:26.152Z,13.52
2023-05-07T02:51:53.046Z,14.02
2023-05-07T02:54:23.369Z,12.68
2023-05-07T02:56:49.969Z,17.17
2023-05-07T02:59:16.705Z,14.30
2023-05-07T03:01:45.100Z,16.15
2023-05-07T03:04:12.680Z,13.68
2023-05-07T03:06:39.286Z,14.02
2023-05-07T03:09:05.867Z,14.45
2023-05-07T03:11:32.424Z,12.70
2023-05-07T03:13:59.020Z,11.43
2023-05-07T03:16:26.033Z,18.05
2023-05-07T03:18:52.668Z,13.18
2023-05-07T03:21:19.390Z,12.48
2023-05-07T03:23:45.905Z,12.68
2023-05-07T03:26:12.473Z,11.82
2023-05-07T03:28:39.523Z,13.88
2023-05-07T03:31:10.468Z,16.33
2023-05-07T03:33:40.489Z,13.80
2023-05-07T03:36:07.120Z,14.85
2023-05-07T03:38:33.752Z,14.27
2023-05-07T03:41:00.580Z,16.25
2023-05-07T03:43:27.266Z,14.45
2023-05-07T03:46:01.512Z,16.10
2023-05-07T03:48:29.152Z,15.57
2023-05-07T03:50:58.612Z,12.90
2023-05-07T03:53:28.541Z,14.63
2023-05-07T03:55:55.092Z,13.00
2023-05-07T03:58:22.001Z,13.32
2023-05-07T04:00:50.180Z,12.70
2023-05-07T04:03:27.102Z,14.35
2023-05-07T04:05:56.864Z,17.35
2023-05-07T04:08:23.501Z,14.85
2023-05-07T04:10:57.136Z,15.77
2023-05-07T04:13:26.085Z,13.32
2023-05-07T04:15:53.247Z,13.43
2023-05-07T04:18:21.151Z,14.77
2023-05-07T04:20:50.351Z,13.88
2023-05-07T04:23:16.962Z,14.93
2023-05-07T04:25:44.022Z,13.82
2023-05-07T04:28:19.925Z,13.63
2023-05-07T04:30:46.637Z,14.27
2023-05-07T04:33:15.060Z,16.00
2023-05-07T04:35:43.084Z,14.30
2023-05-07T04:38:09.766Z,11.88
2023-05-07T04:40:37.212Z,15.93
2023-05-07T04:43:04.203Z,14.52
2023-05-07T04:45:34.113Z,15.15
2023-05-07T04:48:00.922Z,15.05
2023-05-07T04:50:28.179Z,16.38
2023-05-07T04:52:59.584Z,14.23
2023-05-07T04:55:26.537Z,15.73
2023-05-07T04:57:54.095Z,13.52
2023-05-07T05:00:21.658Z,16.13
2023-05-07T05:02:50.607Z,14.38
2023-05-07T05:05:20.566Z,14.75
2023-05-07T05:07:49.798Z,12.25
2023-05-07T05:10:17.357Z,15.80
2023-05-07T05:12:45.413Z,14.25
2023-05-07T05:15:12.938Z,15.02
2023-05-07T05:17:40.374Z,17.33
2023-05-07T05:20:08.514Z,17.67
2023-05-07T05:22:35.703Z,20.35
2023-05-07T05:25:02.394Z,17.65
2023-05-07T05:27:29.628Z,18.17
2023-05-07T05:29:56.471Z,16.15
2023-05-07T05:32:23.103Z,13.38
2023-05-07T05:34:52.045Z,15.07
2023-05-07T05:37:19.046Z,13.93
2023-05-07T05:39:45.864Z,13.68
2023-05-07T05:42:12.585Z,12.38
2023-05-07T05:44:39.558Z,15.48
2023-05-07T05:47:06.493Z,15.00
2023-05-07T05:49:33.577Z,16.90
2023-05-07T05:52:00.382Z,13.68
2023-05-07T05:54:27.700Z,15.30
2023-05-07T05:56:54.547Z,13.45
2023-05-07T05:59:21.272Z,13.55
2023-05-07T06:01:48.157Z,18.50
2023-05-07T06:04:14.848Z,14.68
2023-05-07T06:06:42.030Z,15.73
2023-05-07T06:09:08.672Z,17.50
2023-05-07T06:11:42.037Z,13.85
2023-05-07T06:14:10.061Z,14.30
2023-05-07T06:16:39.096Z,12.52
2023-05-07T06:19:07.166Z,14.95
2023-05-07T06:21:34.115Z,13.93
2023-05-07T06:24:00.762Z,14.63
2023-05-07T06:26:27.528Z,13.48
2023-05-07T06:28:54.414Z,17.05
2023-05-07T06:31:21.669Z,12.35
2023-05-07T06:34:04.274Z,14.57
2023-05-07T06:36:37.156Z,12.95
2023-05-07T06:39:13.272Z,16.75
2023-05-07T06:41:40.044Z,14.73
2023-05-07T06:44:16.200Z,14.30
2023-05-07T06:46:51.431Z,16.95
2023-05-07T06:49:18.344Z,13.98
2023-05-07T06:51:45.401Z,20.50
2023-05-07T06:54:11.989Z,15.65
2023-05-07T06:56:41.856Z,14.18
2023-05-07T06:59:08.746Z,13.13
2023-05-07T07:01:39.379Z,17.40
2023-05-07T07:04:08.232Z,14.43
2023-05-07T07:06:37.123Z,13.88
2023-05-07T07:09:08.874Z,13.98
2023-05-07T07:11:35.785Z,13.60
2023-05-07T07:14:04.774Z,14.15
2023-05-07T07:16:34.476Z,13.82
2023-05-07T07:19:01.910Z,14.80
2023-05-07T07:21:28.681Z,13.88
2023-05-07T07:23:55.507Z,13.07
2023-05-07T07:26:22.247Z,15.95
2023-05-07T07:28:48.848Z,13.20
2023-05-07T07:31:19.628Z,13.73
2023-05-07T07:33:47.835Z,15.57
2023-05-07T07:36:14.401Z,12.90
2023-05-07T07:38:41.314Z,16.98
2023-05-07T07:41:09.324Z,11.55
2023-05-07T07:43:37.054Z,14.23
2023-05-07T07:46:04.527Z,13.85
2023-05-07T07:48:31.691Z,14.10
2023-05-07T07:50:59.393Z,13.27
2023-05-07T07:53:26.468Z,15.73
2023-05-07T07:55:54.434Z,11.77
2023-05-07T07:58:28.021Z,14.27
2023-05-07T08:00:56.967Z,16.77
2023-05-07T08:03:24.548Z,12.88
2023-05-07T08:05:55.375Z,13.48
2023-05-07T08:08:23.516Z,13.50
2023-05-07T08:10:51.661Z,14.50
2023-05-07T08:13:26.184Z,14.55
2023-05-07T08:15:53.552Z,14.23
2023-05-07T08:18:20.382Z,13.88
2023-05-07T08:20:47.440Z,17.33
2023-05-07T08:23:18.278Z,12.90
2023-05-07T08:25:45.893Z,13.82
2023-05-07T08:28:13.296Z,13.68
2023-05-07T08:30:40.801Z,14.30
2023-05-07T08:33:07.468Z,17.17
2023-05-07T08:35:34.336Z,15.35
2023-05-07T08:38:01.520Z,15.93
2023-05-07T08:40:29.371Z,15.48
2023-05-07T08:42:59.128Z,10.98
2023-05-07T08:45:27.457Z,14.57
2023-05-07T08:47:59.512Z,14.80
2023-05-07T08:50:30.544Z,13.27
2023-05-07T08:52:58.716Z,13.18
2023-05-07T08:55:25.442Z,13.88
2023-05-07T08:57:53.724Z,17.23
2023-05-07T09:00:20.582Z,15.50
2023-05-07T09:02:50.833Z,16.52
2023-05-07T09:05:17.692Z,15.45
2023-05-07T09:07:44.363Z,17.95
2023-05-07T09:10:13.232Z,16.70
2023-05-07T09:12:41.969Z,16.25
2023-05-07T09:15:10.912Z,17.92
2023-05-07T09:17:38.987Z,17.95
2023-05-07T09:20:08.594Z,13.60
2023-05-07T09:22:37.762Z,19.67
2023-05-07T09:25:08.316Z,15.05
2023-05-07T09:27:36.613Z,18.02
2023-05-07T09:30:04.398Z,17.70
2023-05-07T09:32:32.538Z,13.80
2023-05-07T09:34:59.525Z,16.17
2023-05-07T09:37:28.030Z,16.45
2023-05-07T09:39:55.543Z,19.95
2023-05-07T09:42:25.577Z,14.82
2023-05-07T09:44:53.475Z,17.08
2023-05-07T09:47:25.185Z,16.17
2023-05-07T09:49:56.938Z,16.70
2023-05-07T09:52:24.856Z,19.17
2023-05-07T09:54:57.136Z,16.27
2023-05-07T09:57:28.457Z,18.60
2023-05-07T10:00:00.963Z,20.42
2023-05-07T10:03:10.896Z,17.05
2023-05-07T10:05:47.352Z,16.85
2023-05-07T10:08:17.930Z,20.55
2023-05-07T10:10:47.396Z,14.73
2023-05-07T10:13:20.030Z,20.52
2023-05-07T10:15:50.229Z,15.68
2023-05-07T10:18:17.958Z,18.52
2023-05-07T10:20:48.841Z,18.48
2023-05-07T10:23:20.367Z,14.73
2023-05-07T10:25:48.764Z,14.30
2023-05-07T10:28:21.101Z,15.63
2023-05-07T10:31:07.716Z,18.15
2023-05-07T10:33:40.822Z,16.38
2023-05-07T10:36:08.992Z,17.70
2023-05-07T10:38:36.196Z,19.13
2023-05-07T10:41:05.779Z,17.60
2023-05-07T10:43:42.196Z,18.20
2023-05-07T10:46:20.007Z,18.10
2023-05-07T10:49:03.075Z,20.67
2023-05-07T10:51:37.367Z,16.58
2023-05-07T10:54:12.080Z,16.73
2023-05-07T10:56:44.640Z,18.98
2023-05-07T10:59:31.666Z,17.90
2023-05-07T11:02:05.614Z,18.92
2023-05-07T11:04:44.626Z,16.35
2023-05-07T11:07:29.565Z,18.85
2023-05-07T11:10:05.846Z,20.92
2023-05-07T11:12:55.959Z,17.92
2023-05-07T11:15:38.963Z,19.88
2023-05-07T11:18:13.732Z,18.52
2023-05-07T11:20:47.591Z,18.83
2023-05-07T11:23:41.676Z,20.17
2023-05-07T11:26:46.038Z,18.00
2023-05-07T11:29:17.825Z,19.65
2023-05-07T11:31:49.705Z,19.30
2023-05-07T11:34:21.481Z,19.00
2023-05-07T11:36:48.557Z,18.42
2023-05-07T11:39:29.390Z,21.83
2023-05-07T11:41:56.250Z,19.10
2023-05-07T11:44:22.832Z,19.45
2023-05-07T11:47:07.674Z,19.27
2023-05-07T11:49:35.259Z,21.30
2023-05-07T11:52:01.769Z,19.80
2023-05-07T11:54:35.789Z,19.90
2023-05-07T11:57:03.863Z,20.88
2023-05-07T11:59:30.572Z,21.40
2023-05-07T12:01:58.646Z,20.42
2023-05-07T12:04:25.405Z,23.50
2023-05-07T12:06:55.173Z,22.20
2023-05-07T12:09:21.799Z,22.23
2023-05-07T12:11:48.665Z,22.45
2023-05-07T12:14:17.031Z,21.20
2023-05-07T12:16:44.159Z,22.73
2023-05-07T12:19:15.672Z,20.27
2023-05-07T12:21:42.854Z,23.08
2023-05-07T12:24:09.429Z,21.65
2023-05-07T12:26:38.758Z,19.90
2023-05-07T12:29:05.492Z,21.95
2023-05-07T12:31:47.567Z,22.20
2023-05-07T12:34:16.769Z,18.90
2023-05-07T12:36:43.315Z,21.25
2023-05-07T12:39:10.006Z,17.65
2023-05-07T12:41:55.538Z,18.77
2023-05-07T12:44:40.158Z,17.70
2023-05-07T12:47:06.797Z,20.00
2023-05-07T12:49:35.528Z,18.27
2023-05-07T12:52:02.118Z,19.00
2023-05-07T12:54:29.399Z,21.35
2023-05-07T12:57:11.351Z,23.13
2023-05-07T12:59:38.529Z,20.35
2023-05-07T13:02:05.657Z,19.60
2023-05-07T13:04:32.288Z,15.43
2023-05-07T13:06:59.048Z,14.45
2023-05-07T13:09:25.754Z,17.13
2023-05-07T13:11:52.235Z,16.20
2023-05-07T13:14:19.310Z,17.42
2023-05-07T13:16:45.901Z,19.55
2023-05-07T13:19:12.477Z,16.48
2023-05-07T13:21:39.095Z,15.90
2023-05-07T13:24:06.025Z,18.92
2023-05-07T13:26:32.677Z,15.02
2023-05-07T13:28:59.387Z,15.88
2023-05-07T13:31:26.327Z,16.75
2023-05-07T13:33:53.825Z,16.98
2023-05-07T13:36:20.825Z,14.10
2023-05-07T13:38:47.626Z,13.23
2023-05-07T13:41:14.286Z,14.00
2023-05-07T13:43:41.039Z,15.57
2023-05-07T13:46:07.944Z,12.32
2023-05-07T13:48:35.852Z,14.55
2023-05-07T13:51:02.531Z,12.80
2023-05-07T13:53:29.134Z,14.90
2023-05-07T13:55:55.788Z,12.60
2023-05-07T13:58:22.310Z,12.43
2023-05-07T14:00:48.944Z,15.70
2023-05-07T14:03:15.996Z,12.82
2023-05-07T14:05:43.117Z,10.23
2023-05-07T14:08:09.752Z,9.38
2023-05-07T14:10:36.348Z,9.90
2023-05-07T14:13:03.496Z,8.60
2023-05-07T14:15:30.124Z,8.98
2023-05-07T14:17:58.596Z,9.27
2023-05-07T14:20:25.289Z,9.60
2023-05-07T14:22:51.893Z,9.88
2023-05-07T14:25:18.712Z,11.50
2023-05-07T14:27:49.931Z,13.73
2023-05-07T14:30:17.928Z,13.20
2023-05-07T14:32:44.451Z,15.60
2023-05-07T14:35:11.564Z,14.57
2023-05-07T14:37:38.203Z,13.80
2023-05-07T14:40:04.935Z,9.43
2023-05-07T14:42:31.470Z,11.35
2023-05-07T14:44:58.022Z,13.93
2023-05-07T14:47:24.590Z,13.75
2023-05-07T14:49:51.222Z,9.60
2023-05-07T14:52:17.792Z,13.25
2023-05-07T14:54:44.320Z,9.73
2023-05-07T14:57:14.227Z,7.45
2023-05-07T14:59:40.873Z,10.52
2023-05-07T15:02:09.213Z,11.57
2023-05-07T15:04:38.490Z,14.25
2023-05-07T15:07:05.159Z,12.30
2023-05-07T15:09:31.680Z,10.23
2023-05-07T15:11:58.469Z,15.05
2023-05-07T15:14:25.209Z,13.38
2023-05-07T15:16:51.885Z,16.27
2023-05-07T15:19:18.564Z,15.68
2023-05-07T15:21:45.034Z,12.27
2023-05-07T15:24:11.672Z,12.15
2023-05-07T15:26:38.312Z,11.43
2023-05-07T15:29:09.215Z,10.93
2023-05-07T15:31:36.027Z,13.93
2023-05-07T15:34:02.733Z,13.18
2023-05-07T15:36:29.424Z,12.48
2023-05-07T15:38:56.151Z,13.18
2023-05-07T15:41:22.943Z,12.15
2023-05-07T15:43:50.849Z,13.18
2023-05-07T15:46:25.461Z,14.32
2023-05-07T15:48:52.924Z,12.18
2023-05-07T15:51:19.499Z,11.57
2023-05-07T15:53:46.312Z,16.70
2023-05-07T15:56:13.086Z,14.60
2023-05-07T15:58:39.658Z,12.43
2023-05-07T16:01:06.284Z,10.27
2023-05-07T16:03:33.004Z,8.43
2023-05-07T16:06:02.463Z,9.32
2023-05-07T16:08:29.491Z,5.88
2023-05-07T16:10:56.017Z,7.30
2023-05-07T16:13:24.890Z,8.48
2023-05-07T16:16:00.552Z,9.38
2023-05-07T16:18:27.181Z,9.55
2023-05-07T16:20:54.609Z,10.88
2023-05-07T16:23:21.691Z,11.75
2023-05-07T16:25:49.068Z,14.00
2023-05-07T16:28:16.015Z,12.25
2023-05-07T16:30:42.574Z,16.13
2023-05-07T16:33:09.281Z,13.93
2023-05-07T16:35:35.753Z,12.90
2023-05-07T16:38:02.416Z,13.43
2023-05-07T16:40:28.980Z,13.40
2023-05-07T16:42:55.733Z,14.23
2023-05-07T16:45:23.341Z,10.88
2023-05-07T16:47:50.084Z,10.30
2023-05-07T16:50:16.657Z,10.65
2023-05-07T16:52:43.380Z,11.68
2023-05-07T16:55:10.047Z,14.25
2023-05-07T16:57:37.111Z,13.93
2023-05-07T17:00:09.072Z,15.38
2023-05-07T17:02:36.190Z,12.35
2023-05-07T17:05:03.812Z,14.38
2023-05-07T17:07:30.966Z,11.80
2023-05-07T17:09:57.572Z,13.63
2023-05-07T17:12:24.190Z,11.82
2023-05-07T17:14:50.797Z,9.57
2023-05-07T17:17:17.396Z,10.55
2023-05-07T17:19:44.153Z,12.73
2023-05-07T17:22:10.992Z,11.80
2023-05-07T17:24:37.697Z,15.80
2023-05-07T17:27:04.278Z,14.85
2023-05-07T17:29:31.389Z,16.08
2023-05-07T17:31:58.439Z,17.35
2023-05-07T17:34:25.225Z,17.95
2023-05-07T17:36:52.263Z,19.17
2023-05-07T17:39:18.733Z,16.52
2023-05-07T17:41:46.322Z,16.15
2023-05-07T17:44:13.287Z,18.40
2023-05-07T17:46:39.882Z,14.18
2023-05-07T17:49:06.414Z,24.42
2023-05-07T17:51:45.876Z,20.50
2023-05-07T17:54:19.535Z,22.50
2023-05-07T17:56:46.450Z,20.77
2023-05-07T17:59:13.972Z,23.45
2023-05-07T18:01:42.124Z,23.73
2023-05-07T18:04:08.817Z,22.77
2023-05-07T18:06:35.632Z,21.10
2023-05-07T18:09:02.913Z,20.45
2023-05-07T18:11:29.603Z,17.65
2023-05-07T18:13:56.375Z,16.40
2023-05-07T18:16:23.023Z,22.08
2023-05-07T18:18:49.671Z,18.25
2023-05-07T18:21:19.090Z,21.48
2023-05-07T18:23:46.072Z,19.45
2023-05-07T18:26:12.649Z,19.73
2023-05-07T18:28:39.432Z,18.30
2023-05-07T18:31:05.915Z,19.05
2023-05-07T18:33:32.522Z,18.23
2023-05-07T18:35:59.073Z,21.10
2023-05-07T18:38:25.620Z,22.67
2023-05-07T18:40:52.084Z,19.75
2023-05-07T18:43:22.077Z,17.90
2023-05-07T18:45:48.805Z,18.17
2023-05-07T18:48:16.919Z,17.55
2023-05-07T18:50:44.061Z,16.98
2023-05-07T18:53:13.701Z,18.73
2023-05-07T18:55:41.342Z,18.00
2023-05-07T18:58:07.892Z,21.48
2023-05-07T19:00:34.547Z,18.08
2023-05-07T19:03:01.130Z,22.90
2023-05-07T19:05:27.733Z,16.55
2023-05-07T19:07:54.463Z,19.80
2023-05-07T19:10:21.325Z,18.58
2023-05-07T19:12:48.029Z,17.48
2023-05-07T19:15:14.581Z,14.88
2023-05-07T19:17:41.092Z,20.65
2023-05-07T19:22:34.669Z,16.45
2023-05-07T19:25:01.480Z,16.27
2023-05-07T19:27:28.047Z,15.93
2023-05-07T19:29:54.663Z,17.92
2023-05-07T19:32:21.588Z,17.85
2023-05-07T19:34:48.324Z,14.65
2023-05-07T19:37:14.880Z,12.13
2023-05-07T19:39:41.540Z,18.85
2023-05-07T19:42:08.205Z,14.70
2023-05-07T19:44:35.698Z,18.95
2023-05-07T19:47:03.673Z,19.00
2023-05-07T19:49:30.361Z,17.15
2023-05-07T19:51:57.350Z,16.80
2023-05-07T19:54:24.018Z,17.65
2023-05-07T19:56:50.673Z,18.30
2023-05-07T19:59:17.301Z,20.13
2023-05-07T20:01:43.994Z,17.70
2023-05-07T20:04:10.873Z,22.60
2023-05-07T20:06:37.524Z,18.38
2023-05-07T20:09:04.282Z,21.13
2023-05-07T20:11:31.851Z,19.90
2023-05-07T20:13:58.406Z,20.92
2023-05-07T20:16:25.057Z,20.48
2023-05-07T20:18:51.752Z,21.00
2023-05-07T20:22:04.057Z,19.42
2023-05-07T20:24:30.883Z,18.08
2023-05-07T20:26:57.401Z,22.42
2023-05-07T20:29:24.347Z,20.40
2023-05-07T20:31:51.635Z,20.52
2023-05-07T20:34:18.299Z,24.00
2023-05-07T20:36:46.420Z,21.77
2023-05-07T20:39:15.993Z,20.00
2023-05-07T20:41:44.096Z,21.90
2023-05-07T20:44:11.054Z,20.92
2023-05-07T20:46:38.447Z,23.50
2023-05-07T20:49:05.078Z,21.13
2023-05-07T20:51:33.083Z,22.85
2023-05-07T20:53:59.668Z,20.60
2023-05-07T20:56:26.792Z,20.40
2023-05-07T20:58:53.410Z,19.38
2023-05-07T21:01:20.001Z,20.50
2023-05-07T21:03:46.619Z,24.95
2023-05-07T21:06:13.205Z,22.77
2023-05-07T21:08:39.907Z,23.10
2023-05-07T21:11:06.376Z,22.92
2023-05-07T21:13:33.062Z,22.83
2023-05-07T21:16:02.347Z,25.83
2023-05-07T21:18:30.944Z,25.38
2023-05-07T21:20:57.513Z,25.20
2023-05-07T21:23:24.137Z,22.60
2023-05-07T21:25:51.883Z,25.27
2023-05-07T21:28:18.561Z,27.38
2023-05-07T21:30:45.110Z,28.77
2023-05-07T21:33:11.758Z,23.30
2023-05-07T21:35:38.319Z,25.65
2023-05-07T21:38:04.990Z,26.33
2023-05-07T21:40:31.661Z,30.60
2023-05-07T21:42:58.702Z,27.13
2023-05-07T21:45:25.485Z,28.10
2023-05-07T21:47:52.220Z,29.48
2023-05-07T21:50:19.097Z,31.23
2023-05-07T21:52:45.812Z,28.08
2023-05-07T21:55:12.576Z,26.60
2023-05-07T21:57:43.652Z,28.95
2023-05-07T22:00:12.885Z,29.92
2023-05-07T22:02:39.746Z,27.15
2023-05-07T22:05:06.511Z,25.80
2023-05-07T22:07:33.244Z,29.50
2023-05-07T22:09:59.898Z,30.30
2023-05-07T22:12:26.560Z,32.50
2023-05-07T22:14:53.279Z,29.92
2023-05-07T22:17:20.209Z,32.50
2023-05-07T22:19:47.074Z,27.80
2023-05-07T22:22:13.765Z,28.63
2023-05-07T22:24:40.389Z,29.17
2023-05-07T22:27:06.938Z,29.42
2023-05-07T22:29:33.969Z,28.40
2023-05-07T22:32:00.602Z,26.58
2023-05-07T22:34:27.493Z,27.88
2023-05-07T22:36:54.097Z,28.90
2023-05-07T22:39:20.864Z,26.60
2023-05-07T22:41:47.543Z,25.38
2023-05-07T22:44:14.172Z,25.23
2023-05-07T22:46:40.622Z,28.85
2023-05-07T22:49:16.572Z,28.27
2023-05-07T22:51:43.228Z,26.58
2023-05-07T22:54:09.702Z,27.02
2023-05-07T22:56:36.574Z,25.92
2023-05-07T22:59:03.109Z,25.33
2023-05-07T23:01:29.835Z,23.35
2023-05-07T23:03:56.578Z,25.65
2023-05-07T23:06:23.165Z,24.13
2023-05-07T23:08:49.657Z,25.27
2023-05-07T23:11:16.638Z,23.23
2023-05-07T23:13:43.253Z,21.40
2023-05-07T23:16:09.933Z,22.48
2023-05-07T23:18:36.648Z,22.40
2023-05-07T23:21:03.281Z,23.95
2023-05-07T23:23:33.716Z,24.55
2023-05-07T23:26:00.493Z,25.77
2023-05-07T23:28:27.091Z,27.13
2023-05-07T23:30:53.785Z,25.17
2023-05-07T23:33:20.501Z,27.85
2023-05-07T23:35:47.120Z,25.40
2023-05-07T23:38:13.705Z,25.48
2023-05-07T23:40:40.387Z,26.20
2023-05-07T23:43:06.958Z,29.05
2023-05-07T23:45:33.646Z,25.42
2023-05-07T23:48:00.407Z,27.77
2023-05-07T23:50:27.075Z,26.77
2023-05-07T23:52:53.571Z,27.65
2023-05-07T23:55:20.255Z,27.38
2023-05-07T23:57:46.712Z,31.63
